MAPA DE AEROPUERTO

INFORMACIÓN METAR y TAF

METAR FOR GCLP
ADDS - METARS form results

(2056 UTC 01 June 2020)
Data provider http://aviationweather.gov/metar/data/
 
METAR text: GCLP 012030Z 34008KT 9999 FEW040 22/18 Q1015 NOSIG
Conditions at: GCLP (LAS PALMAS/GANDO, ES) observed 2030 UTC 01 June 2020
Temperature: 22.0°C (72°F)
Dewpoint: 18.0°C (64°F) [RH = 78%]
Pressure (altimeter): 29.97 inches Hg (1015.0 mb)
Winds: from the NNW (340 degrees) at 9 MPH (8 knots; 4.1 m/s)
Visibility: 6 or more miles (10+ km)
Ceiling: at least 12,000 feet AGL
Clouds: few clouds at 4000 feet AGL
Weather: no significant weather observed at this time

METAR text: GCLP 012000Z 34010KT 9999 FEW025 SCT045 22/18 Q1014 NOSIG
Conditions at: GCLP (LAS PALMAS/GANDO, ES) observed 2000 UTC 01 June 2020
Temperature: 22.0°C (72°F)
Dewpoint: 18.0°C (64°F) [RH = 78%]
Pressure (altimeter): 29.94 inches Hg (1014.0 mb)
Winds: from the NNW (340 degrees) at 12 MPH (10 knots; 5.1 m/s)
Visibility: 6 or more miles (10+ km)
Ceiling: at least 12,000 feet AGL
Clouds: few clouds at 2500 feet AGL
scattered clouds at 4500 feet AGL
Weather: no significant weather observed at this time

Forecast for: GCLP (LAS PALMAS/GANDO, ES)
Text: TAF GCLP 012000Z 0121/0221 30005KT 9999 FEW025 TX25/0215Z TN17/0206Z
Forecast period: 2100 UTC 01 June 2020 to 0800 UTC 02 June 2020
Forecast type: FROM: standard forecast or significant change
Winds: from the WNW (300 degrees) at 6 MPH (5 knots; 2.6 m/s)
Visibility: 6 or more miles 10+ km)
Ceiling: at least 12,000 feet AGL
Clouds: few clouds at 2500 feet AGL
Weather: no significant weather forecast for this period
Text: BECMG 0208/0210 06010KT
Forecast period: 0800 to 2100 UTC 02 June 2020
Forecast type: BECOMING: Conditions expected to become as follows by 1000 UTC 02 June 2020
Winds: from the ENE (60 degrees) at 12 MPH (10 knots; 5.1 m/s)
Visibility: 6 or more miles 10+ km)
Ceiling: at least 12,000 feet AGL
Clouds: few clouds at 2500 feet AGL
Weather: no significant weather forecast for this period